Time;durP1;ratioP1;P1;durP2;ratioP2;P2;SDS_P1;SDS_P2;PMS_P1;PMS_P2;Temp;Humidity;BMP_temperature;BMP_pressure;BME280_temperature;BME280_humidity;BME280_pressure;Samples;Min_cycle;Max_cycle;Signal;HPM_P1;HPM_P2
2021/05/16 00:00:34;;;;;;;6.43;3.03;;;11.90;98.20;;;;;;5053025;28;20683;-51
2021/05/16 00:03:01;;;;;;;4.03;2.23;;;11.90;98.30;;;;;;5052776;28;20688;-51
2021/05/16 00:05:29;;;;;;;6.80;2.90;;;11.90;98.30;;;;;;5052757;28;20998;-51
2021/05/16 00:07:56;;;;;;;2.70;2.50;;;11.90;98.30;;;;;;5052057;28;20636;-51
2021/05/16 00:10:24;;;;;;;10.13;3.07;;;11.80;98.30;;;;;;5052598;28;20637;-51
2021/05/16 00:12:51;;;;;;;4.20;2.93;;;11.80;98.30;;;;;;5051390;28;20633;-52
2021/05/16 00:15:18;;;;;;;4.27;2.83;;;11.90;98.40;;;;;;5052374;28;20653;-51
2021/05/16 00:17:45;;;;;;;4.43;2.83;;;11.90;98.30;;;;;;5051993;28;20633;-51
2021/05/16 00:20:14;;;;;;;7.70;2.73;;;11.90;98.40;;;;;;5051884;28;21019;-51
2021/05/16 00:22:41;;;;;;;4.53;2.80;;;11.90;98.40;;;;;;5052261;28;20987;-51
2021/05/16 00:25:10;;;;;;;5.03;2.50;;;11.90;98.40;;;;;;5052157;28;20674;-51
2021/05/16 00:27:37;;;;;;;3.10;2.50;;;11.90;98.40;;;;;;5051705;28;21214;-51
2021/05/16 00:30:05;;;;;;;4.03;2.83;;;11.90;98.40;;;;;;5052061;28;20622;-51
2021/05/16 00:32:31;;;;;;;4.43;2.60;;;11.90;98.30;;;;;;5052127;28;20657;-51
2021/05/16 00:34:58;;;;;;;3.73;2.23;;;11.90;98.30;;;;;;5051606;28;21059;-51
2021/05/16 00:37:25;;;;;;;4.03;2.40;;;11.90;98.20;;;;;;5051507;28;21264;-50
2021/05/16 00:39:52;;;;;;;6.60;2.33;;;12.00;98.10;;;;;;5052118;28;20679;-51
2021/05/16 00:42:19;;;;;;;3.83;2.77;;;12.00;98.10;;;;;;5052036;28;20630;-51
2021/05/16 00:44:59;;;;;;;4.13;2.87;;;11.90;98.10;;;;;;5051592;28;20724;-51
2021/05/16 00:47:26;;;;;;;3.70;3.23;;;11.90;98.00;;;;;;5051387;28;20630;-51
2021/05/16 00:49:54;;;;;;;5.27;3.03;;;11.80;98.10;;;;;;5051456;28;20706;-51
2021/05/16 00:52:21;;;;;;;9.53;3.30;;;11.80;98.20;;;;;;5052104;28;20999;-51
2021/05/16 00:54:48;;;;;;;6.93;2.40;;;11.80;98.20;;;;;;5050616;28;20657;-51
2021/05/16 00:57:16;;;;;;;4.47;3.30;;;11.80;98.10;;;;;;5051302;28;20630;-52
2021/05/16 00:59:42;;;;;;;3.23;2.93;;;11.80;98.20;;;;;;5051708;28;20997;-52
2021/05/16 01:02:09;;;;;;;6.63;2.90;;;11.80;98.20;;;;;;5051566;28;21163;-51
2021/05/16 01:04:36;;;;;;;3.97;2.67;;;11.80;98.20;;;;;;5051587;28;20704;-51
2021/05/16 01:07:03;;;;;;;7.30;3.10;;;11.80;98.20;;;;;;5051701;28;20676;-51
2021/05/16 01:09:29;;;;;;;5.87;2.97;;;11.70;98.40;;;;;;5051659;28;20626;-51
2021/05/16 01:11:58;;;;;;;9.30;3.00;;;11.70;98.40;;;;;;5051377;28;20916;-51
2021/05/16 01:14:31;;;;;;;10.63;2.97;;;11.70;98.30;;;;;;5050634;28;20737;-50
2021/05/16 01:16:58;;;;;;;4.83;2.90;;;11.70;98.30;;;;;;5051444;28;20741;-51
2021/05/16 01:19:25;;;;;;;4.70;3.27;;;11.70;98.30;;;;;;5050384;28;20629;-50
2021/05/16 01:21:54;;;;;;;3.80;2.73;;;11.70;98.40;;;;;;5050682;28;20715;-51
2021/05/16 01:24:22;;;;;;;3.63;3.33;;;11.60;98.40;;;;;;5050889;28;20686;-50
2021/05/16 01:26:49;;;;;;;6.63;2.80;;;11.60;98.50;;;;;;5050987;28;20614;-50
2021/05/16 01:29:16;;;;;;;9.90;2.47;;;11.60;98.50;;;;;;5050207;28;20638;-51
2021/05/16 01:31:43;;;;;;;5.67;2.90;;;11.70;98.50;;;;;;5051226;28;21194;-51
2021/05/16 01:34:10;;;;;;;4.23;3.67;;;11.60;98.50;;;;;;5050502;28;21151;-51
2021/05/16 01:36:37;;;;;;;2.73;2.20;;;11.60;98.50;;;;;;5051210;28;20681;-51
2021/05/16 01:39:07;;;;;;;4.83;2.80;;;11.60;98.40;;;;;;5045210;28;20650;-51
2021/05/16 01:41:33;;;;;;;4.97;2.80;;;11.60;98.40;;;;;;5050655;28;20665;-51
2021/05/16 01:44:00;;;;;;;7.63;2.70;;;11.70;98.40;;;;;;5050812;28;20687;-51
2021/05/16 01:46:27;;;;;;;4.00;2.80;;;11.80;98.50;;;;;;5050705;28;20689;-51
2021/05/16 01:48:54;;;;;;;10.20;2.93;;;11.80;98.50;;;;;;5050721;28;20630;-51
2021/05/16 01:51:20;;;;;;;4.40;2.97;;;11.80;98.30;;;;;;5050345;28;21142;-51
2021/05/16 01:53:48;;;;;;;3.77;2.53;;;11.80;98.20;;;;;;5050571;28;20649;-51
2021/05/16 01:56:21;;;;;;;8.57;2.40;;;11.80;98.20;;;;;;5050130;28;21094;-50
2021/05/16 01:58:48;;;;;;;2.50;1.80;;;11.90;98.30;;;;;;5049755;28;20653;-50
2021/05/16 02:01:14;;;;;;;4.97;2.63;;;11.90;98.20;;;;;;5050896;28;20658;-51
2021/05/16 02:03:41;;;;;;;3.40;2.37;;;11.90;98.10;;;;;;5050133;28;20676;-50
2021/05/16 02:06:08;;;;;;;2.80;2.50;;;11.90;98.10;;;;;;5049809;28;21003;-50
2021/05/16 02:08:35;;;;;;;4.73;2.47;;;11.90;98.00;;;;;;5049993;28;20955;-51
2021/05/16 02:11:02;;;;;;;4.20;2.40;;;11.90;98.10;;;;;;5050640;28;20788;-50
2021/05/16 02:13:30;;;;;;;5.63;2.80;;;11.90;98.10;;;;;;5050124;28;20636;-51
2021/05/16 02:15:56;;;;;;;4.07;2.70;;;11.90;98.10;;;;;;5050028;28;20678;-51
2021/05/16 02:18:23;;;;;;;3.00;2.50;;;11.90;98.10;;;;;;5049937;28;20619;-50
2021/05/16 02:20:50;;;;;;;6.00;2.83;;;12.00;98.10;;;;;;5050208;28;21159;-51
2021/05/16 02:23:16;;;;;;;3.90;2.83;;;12.00;98.10;;;;;;5049829;28;20668;-50
2021/05/16 02:25:43;;;;;;;3.20;1.93;;;12.00;98.00;;;;;;5049866;28;21011;-50
2021/05/16 02:28:10;;;;;;;2.37;1.80;;;12.00;98.10;;;;;;5049826;28;21200;-50
2021/05/16 02:30:38;;;;;;;6.40;2.20;;;12.00;98.00;;;;;;5050531;28;20648;-51
2021/05/16 02:33:05;;;;;;;3.80;2.50;;;12.00;98.00;;;;;;5049335;28;20680;-50
2021/05/16 02:35:32;;;;;;;4.90;2.60;;;12.00;98.00;;;;;;5049901;28;20696;-51
2021/05/16 02:37:58;;;;;;;3.60;2.43;;;12.00;98.00;;;;;;5048990;28;20646;-50
2021/05/16 02:40:25;;;;;;;6.27;2.07;;;12.00;98.00;;;;;;5049566;28;20665;-50
2021/05/16 02:42:52;;;;;;;5.57;2.07;;;12.00;97.90;;;;;;5050011;28;20661;-50
2021/05/16 02:45:18;;;;;;;11.60;3.20;;;12.00;97.90;;;;;;5049424;28;20811;-51
2021/05/16 02:47:46;;;;;;;3.63;2.30;;;12.10;98.00;;;;;;5049477;28;20641;-50
2021/05/16 02:50:15;;;;;;;3.93;2.50;;;12.10;97.90;;;;;;5049736;28;20658;-51
2021/05/16 02:52:42;;;;;;;4.17;2.37;;;12.10;97.80;;;;;;5049586;28;20700;-50
2021/05/16 02:55:10;;;;;;;9.27;2.70;;;12.00;97.80;;;;;;5049424;28;20657;-50
2021/05/16 02:57:37;;;;;;;2.30;2.10;;;12.10;97.80;;;;;;5049068;28;20657;-50
2021/05/16 03:00:04;;;;;;;4.33;2.27;;;12.10;97.80;;;;;;5049701;28;20668;-51
2021/05/16 03:02:31;;;;;;;5.47;3.13;;;12.10;97.70;;;;;;5047498;28;20744;-51
2021/05/16 03:04:58;;;;;;;3.17;2.10;;;12.10;97.70;;;;;;5049438;28;20724;-51
2021/05/16 03:07:25;;;;;;;4.67;3.33;;;12.10;97.80;;;;;;5047730;28;20631;-50
2021/05/16 03:09:52;;;;;;;5.57;3.70;;;12.10;97.80;;;;;;5049278;28;20641;-51
2021/05/16 03:12:18;;;;;;;7.80;3.03;;;12.10;97.80;;;;;;5049559;28;20664;-50
2021/05/16 03:14:45;;;;;;;3.93;2.30;;;12.10;97.70;;;;;;5048741;28;20666;-50
2021/05/16 03:17:12;;;;;;;2.97;2.33;;;12.10;97.70;;;;;;5048731;28;20676;-50
2021/05/16 03:19:38;;;;;;;4.57;2.30;;;12.10;97.70;;;;;;5053087;28;20634;-51
2021/05/16 03:22:08;;;;;;;5.37;2.60;;;12.10;97.70;;;;;;5053148;28;20663;-51
2021/05/16 03:24:36;;;;;;;6.33;3.10;;;12.00;97.60;;;;;;5053016;28;20684;-51
2021/05/16 03:27:03;;;;;;;2.83;1.77;;;12.00;97.70;;;;;;5052977;28;20719;-50
2021/05/16 03:29:31;;;;;;;3.40;2.10;;;12.00;97.70;;;;;;5052635;28;21256;-51
2021/05/16 03:31:58;;;;;;;2.53;2.20;;;12.10;97.70;;;;;;5053044;28;20630;-50
2021/05/16 03:34:25;;;;;;;4.90;2.30;;;12.00;97.60;;;;;;5052772;28;20656;-51
2021/05/16 03:36:52;;;;;;;4.57;2.10;;;12.00;97.70;;;;;;5052931;28;20621;-50
2021/05/16 03:39:19;;;;;;;3.23;2.13;;;12.10;97.80;;;;;;5050189;28;20665;-51
2021/05/16 03:41:47;;;;;;;2.10;1.73;;;12.10;97.70;;;;;;5033747;28;20677;-50
2021/05/16 03:44:14;;;;;;;2.00;1.43;;;12.10;97.60;;;;;;5032329;28;20690;-51
2021/05/16 03:46:41;;;;;;;3.13;2.33;;;12.10;97.70;;;;;;5032655;28;21016;-50
2021/05/16 03:49:08;;;;;;;4.67;2.77;;;12.10;97.60;;;;;;5049077;28;20654;-51
2021/05/16 03:51:34;;;;;;;2.13;1.50;;;12.10;97.70;;;;;;5052588;28;21082;-50
2021/05/16 03:54:01;;;;;;;2.87;1.33;;;12.10;97.70;;;;;;5052455;28;20673;-51
2021/05/16 03:56:29;;;;;;;2.97;1.93;;;12.10;97.80;;;;;;5051975;28;21394;-50
2021/05/16 03:58:55;;;;;;;4.57;2.17;;;12.20;97.90;;;;;;5052296;28;20668;-51
2021/05/16 04:01:22;;;;;;;3.40;2.53;;;12.20;97.90;;;;;;5052299;28;21425;-50
2021/05/16 04:03:49;;;;;;;7.03;3.30;;;12.20;97.90;;;;;;5052740;28;20654;-51
2021/05/16 04:06:15;;;;;;;2.33;1.60;;;12.20;97.90;;;;;;5052353;28;20716;-51
2021/05/16 04:08:42;;;;;;;2.30;2.10;;;12.20;97.90;;;;;;5050702;28;20714;-51
2021/05/16 04:11:09;;;;;;;4.53;2.33;;;12.20;98.00;;;;;;5052039;28;21209;-50
2021/05/16 04:13:36;;;;;;;4.00;2.73;;;12.20;98.10;;;;;;5051788;28;20685;-50
2021/05/16 04:16:04;;;;;;;3.53;2.30;;;12.20;98.20;;;;;;5052290;28;21252;-50
2021/05/16 04:18:30;;;;;;;4.17;3.77;;;12.20;98.30;;;;;;5051668;28;20688;-50
2021/05/16 04:20:57;;;;;;;4.77;3.23;;;12.20;98.40;;;;;;5052330;28;20626;-50
2021/05/16 04:23:25;;;;;;;5.97;3.00;;;12.20;98.40;;;;;;5052019;28;20661;-51
2021/05/16 04:25:52;;;;;;;5.40;2.50;;;12.20;98.40;;;;;;5051721;28;21116;-51
2021/05/16 04:28:19;;;;;;;3.90;3.10;;;12.20;98.40;;;;;;5050860;28;21102;-50
2021/05/16 04:30:46;;;;;;;3.93;2.93;;;12.20;98.40;;;;;;5051640;28;20771;-51
2021/05/16 04:33:14;;;;;;;4.17;3.00;;;12.20;98.40;;;;;;5051766;28;20808;-51
2021/05/16 04:35:40;;;;;;;6.60;3.43;;;12.20;98.80;;;;;;5051751;28;20667;-51
2021/05/16 04:38:07;;;;;;;3.43;2.87;;;12.20;98.60;;;;;;5051167;28;20649;-52
2021/05/16 04:40:34;;;;;;;6.47;3.43;;;12.30;98.60;;;;;;5052003;28;20654;-50
2021/05/16 04:43:00;;;;;;;5.77;2.87;;;12.30;98.50;;;;;;5051197;28;21028;-51
2021/05/16 04:45:27;;;;;;;4.83;4.33;;;12.30;98.50;;;;;;5051567;28;20689;-50
2021/05/16 04:47:55;;;;;;;4.17;3.37;;;12.30;98.40;;;;;;5051081;28;20986;-52
2021/05/16 04:50:21;;;;;;;4.53;3.67;;;12.30;98.40;;;;;;5051760;28;21285;-51
2021/05/16 04:52:48;;;;;;;5.00;4.50;;;12.30;98.50;;;;;;5051686;28;21217;-52
2021/05/16 04:55:15;;;;;;;9.73;4.90;;;12.30;98.50;;;;;;5051391;28;20662;-51
2021/05/16 04:57:41;;;;;;;6.37;5.77;;;12.30;98.60;;;;;;5051258;28;20658;-51
2021/05/16 05:00:09;;;;;;;6.93;6.23;;;12.30;98.60;;;;;;5049688;28;21016;-51
2021/05/16 05:02:36;;;;;;;7.40;6.60;;;12.40;98.60;;;;;;5051392;28;20664;-51
2021/05/16 05:05:05;;;;;;;9.33;7.73;;;12.40;98.60;;;;;;5051275;28;20702;-50
2021/05/16 05:07:31;;;;;;;8.70;7.90;;;12.30;98.80;;;;;;5050721;28;21213;-50
2021/05/16 05:09:58;;;;;;;7.63;6.80;;;12.40;98.90;;;;;;5050869;28;20664;-51
2021/05/16 05:12:25;;;;;;;9.47;8.47;;;12.40;98.90;;;;;;5051348;28;20671;-50
2021/05/16 05:14:51;;;;;;;8.43;7.37;;;12.40;98.90;;;;;;5050229;28;20665;-50
2021/05/16 05:17:18;;;;;;;9.50;7.57;;;12.40;98.90;;;;;;5050404;28;20725;-51
2021/05/16 05:19:45;;;;;;;8.67;7.77;;;12.40;99.00;;;;;;5050634;28;21219;-51
2021/05/16 05:22:12;;;;;;;8.23;7.43;;;12.50;99.00;;;;;;5051036;28;20665;-51
2021/05/16 05:24:39;;;;;;;8.30;7.33;;;12.50;99.00;;;;;;5050101;28;20696;-51
2021/05/16 05:27:06;;;;;;;10.33;7.70;;;12.40;98.90;;;;;;5051073;28;20668;-51
2021/05/16 05:29:32;;;;;;;9.10;7.67;;;12.50;99.10;;;;;;5049869;28;20672;-51
2021/05/16 05:31:59;;;;;;;9.03;8.17;;;12.50;99.10;;;;;;5051247;28;20669;-51
2021/05/16 05:34:26;;;;;;;7.00;6.40;;;12.50;99.10;;;;;;5050285;28;20750;-51
2021/05/16 05:36:53;;;;;;;7.33;6.73;;;12.50;99.10;;;;;;5050833;28;21172;-51
2021/05/16 05:39:20;;;;;;;10.50;7.23;;;12.50;99.10;;;;;;5048361;28;20669;-51
2021/05/16 05:41:50;;;;;;;8.10;6.63;;;12.50;99.20;;;;;;5042129;28;20642;-51
2021/05/16 05:44:17;;;;;;;6.37;5.63;;;12.50;99.20;;;;;;5050631;28;20622;-51
2021/05/16 05:46:43;;;;;;;9.13;6.30;;;12.50;99.10;;;;;;5049774;28;20700;-51
2021/05/16 05:49:10;;;;;;;8.00;7.20;;;12.60;99.00;;;;;;5049884;28;20712;-51
2021/05/16 05:51:37;;;;;;;10.17;5.73;;;12.60;99.00;;;;;;5050593;28;20629;-51
2021/05/16 05:54:04;;;;;;;6.80;6.00;;;12.60;99.10;;;;;;5050608;28;20706;-51
2021/05/16 05:56:31;;;;;;;6.37;5.50;;;12.60;99.10;;;;;;5052250;28;20764;-51
2021/05/16 05:58:58;;;;;;;9.53;7.20;;;12.60;99.10;;;;;;5053002;28;20648;-51
2021/05/16 06:01:25;;;;;;;4.83;4.43;;;12.60;99.10;;;;;;5053269;28;20698;-51
2021/05/16 06:03:52;;;;;;;7.20;5.17;;;12.60;99.10;;;;;;5052731;28;20653;-51
2021/05/16 06:06:18;;;;;;;5.80;5.30;;;12.60;99.10;;;;;;5032058;28;20662;-53
2021/05/16 06:08:45;;;;;;;5.77;5.27;;;12.60;99.00;;;;;;5030225;28;20647;-51
2021/05/16 06:11:12;;;;;;;6.67;5.40;;;12.60;99.10;;;;;;5030096;28;20662;-50
2021/05/16 06:13:39;;;;;;;6.60;6.00;;;12.60;99.30;;;;;;5043919;28;20669;-51
2021/05/16 06:16:06;;;;;;;6.03;5.00;;;12.70;99.40;;;;;;5050167;28;20674;-51
2021/05/16 06:18:33;;;;;;;5.73;5.20;;;12.80;99.60;;;;;;5049676;28;20666;-51
2021/05/16 06:20:59;;;;;;;4.90;4.50;;;12.90;99.10;;;;;;5049833;28;20658;-51
2021/05/16 06:23:33;;;;;;;5.87;5.37;;;13.00;98.90;;;;;;5049704;28;20737;-51
2021/05/16 06:26:00;;;;;;;7.70;6.73;;;13.00;98.90;;;;;;5050034;28;20693;-52
2021/05/16 06:28:26;;;;;;;6.47;5.60;;;13.10;98.80;;;;;;5049171;28;20677;-52
2021/05/16 06:30:54;;;;;;;6.53;6.03;;;13.20;98.60;;;;;;5049476;28;21062;-52
2021/05/16 06:33:21;;;;;;;7.73;6.50;;;13.10;98.60;;;;;;5049644;28;20661;-52
2021/05/16 06:35:47;;;;;;;6.90;6.20;;;13.20;98.80;;;;;;5049579;28;20650;-52
2021/05/16 06:38:15;;;;;;;6.87;6.13;;;13.30;98.70;;;;;;5049767;28;20947;-52
2021/05/16 06:40:42;;;;;;;5.70;5.20;;;13.40;98.30;;;;;;5049960;28;20673;-51
2021/05/16 06:43:11;;;;;;;6.43;5.80;;;13.40;98.10;;;;;;5049541;28;20637;-52
2021/05/16 06:45:38;;;;;;;6.33;5.70;;;13.40;98.00;;;;;;5036582;28;21028;-51
2021/05/16 06:48:06;;;;;;;7.03;5.13;;;13.40;98.00;;;;;;5049107;28;20658;-50
2021/05/16 06:50:33;;;;;;;7.00;5.23;;;13.30;98.20;;;;;;5029990;28;21132;-50
2021/05/16 06:53:00;;;;;;;5.70;5.23;;;13.30;98.30;;;;;;5050476;28;20957;-51
2021/05/16 06:55:26;;;;;;;5.87;5.07;;;13.30;98.20;;;;;;5049804;28;20646;-51
2021/05/16 06:57:53;;;;;;;7.53;6.10;;;13.30;98.30;;;;;;5053465;28;20707;-51
2021/05/16 07:00:20;;;;;;;5.23;4.73;;;13.20;98.60;;;;;;5053505;28;20646;-51
2021/05/16 07:02:47;;;;;;;6.23;5.63;;;13.10;98.70;;;;;;5053861;28;20665;-52
2021/05/16 07:05:15;;;;;;;6.57;5.20;;;13.00;99.10;;;;;;5053159;28;20697;-52
2021/05/16 07:07:42;;;;;;;7.30;6.20;;;12.90;99.50;;;;;;5052953;28;20634;-51
2021/05/16 07:10:09;;;;;;;6.83;5.90;;;12.80;99.80;;;;;;5049189;28;20688;-52
2021/05/16 07:12:35;;;;;;;6.07;5.47;;;12.60;99.90;;;;;;5053570;28;20657;-52
2021/05/16 07:15:02;;;;;;;9.13;6.07;;;12.50;99.90;;;;;;5053083;28;20672;-52
2021/05/16 07:17:30;;;;;;;6.87;6.23;;;12.40;99.90;;;;;;5052944;28;20633;-51
2021/05/16 07:19:56;;;;;;;5.47;4.97;;;12.40;99.90;;;;;;5053445;28;20764;-52
2021/05/16 07:22:24;;;;;;;6.60;4.77;;;12.40;99.90;;;;;;5052987;28;21058;-52
2021/05/16 07:24:51;;;;;;;4.27;3.97;;;12.40;99.90;;;;;;5052967;28;20752;-52
2021/05/16 07:27:17;;;;;;;7.00;4.33;;;12.50;99.90;;;;;;5052494;28;20622;-50
2021/05/16 07:29:44;;;;;;;4.33;4.03;;;12.50;99.90;;;;;;5054121;28;20665;-51
2021/05/16 07:32:13;;;;;;;6.50;5.30;;;12.50;99.90;;;;;;5052333;28;20695;-52
2021/05/16 07:34:40;;;;;;;7.60;4.40;;;12.60;99.90;;;;;;5066671;22;20642;-51
2021/05/16 07:37:06;;;;;;;4.77;4.37;;;12.60;99.90;;;;;;5073887;28;20659;-52
2021/05/16 07:39:34;;;;;;;4.37;3.60;;;12.70;99.90;;;;;;5073797;28;20621;-52
2021/05/16 07:42:01;;;;;;;5.30;3.90;;;12.80;99.90;;;;;;5060041;28;20646;-52
2021/05/16 07:44:28;;;;;;;3.03;2.70;;;12.80;99.90;;;;;;5054054;28;21287;-52
2021/05/16 07:46:54;;;;;;;5.47;4.60;;;12.90;99.90;;;;;;5055124;28;20686;-52
2021/05/16 07:49:21;;;;;;;6.13;3.87;;;12.90;99.90;;;;;;5072508;28;21079;-53
2021/05/16 07:51:48;;;;;;;3.33;3.03;;;12.90;99.90;;;;;;5073942;28;21024;-52
2021/05/16 07:54:15;;;;;;;3.70;3.40;;;13.00;99.90;;;;;;5072496;28;20621;-53
2021/05/16 07:56:42;;;;;;;4.23;2.90;;;13.10;99.90;;;;;;5074359;28;20677;-53
2021/05/16 07:59:09;;;;;;;6.03;3.30;;;13.10;99.70;;;;;;5073659;28;20645;-54
2021/05/16 08:01:36;;;;;;;3.53;3.00;;;13.20;99.70;;;;;;5073990;28;20664;-54
2021/05/16 08:04:03;;;;;;;3.50;2.97;;;13.20;99.60;;;;;;5073384;28;20617;-53
2021/05/16 08:06:30;;;;;;;3.80;2.17;;;13.40;99.90;;;;;;5073487;28;20649;-55
2021/05/16 08:08:57;;;;;;;2.23;2.03;;;13.50;99.20;;;;;;5073223;28;21284;-54
2021/05/16 08:11:23;;;;;;;4.00;2.27;;;13.60;98.90;;;;;;5072327;28;21197;-55
2021/05/16 08:13:51;;;;;;;2.37;2.20;;;13.60;98.70;;;;;;5073873;28;20661;-54
2021/05/16 08:16:18;;;;;;;5.17;3.07;;;13.70;98.80;;;;;;5073188;28;20672;-54
2021/05/16 08:18:47;;;;;;;3.20;2.57;;;13.80;98.70;;;;;;5073357;28;20649;-54
2021/05/16 08:21:14;;;;;;;2.60;2.40;;;13.90;98.10;;;;;;5073753;28;20625;-54
2021/05/16 08:23:41;;;;;;;3.87;2.50;;;14.00;97.80;;;;;;5071468;28;20653;-54
2021/05/16 08:26:07;;;;;;;2.20;2.00;;;14.10;98.00;;;;;;5068097;28;20652;-52
2021/05/16 08:28:34;;;;;;;2.33;1.47;;;14.10;97.80;;;;;;5072066;28;20629;-54
2021/05/16 08:31:02;;;;;;;2.67;2.33;;;14.30;97.90;;;;;;5073498;28;20672;-55
2021/05/16 08:33:28;;;;;;;3.13;2.67;;;14.50;97.30;;;;;;5068732;28;20664;-54
2021/05/16 08:35:55;;;;;;;2.30;1.60;;;14.60;97.20;;;;;;5073893;28;21258;-55
2021/05/16 08:38:22;;;;;;;2.93;2.63;;;14.80;96.60;;;;;;5067280;28;20653;-55
2021/05/16 08:40:49;;;;;;;3.73;2.00;;;14.90;96.30;;;;;;5071581;28;20676;-55
2021/05/16 08:43:15;;;;;;;4.07;1.77;;;14.90;96.00;;;;;;5073075;28;20621;-54
2021/05/16 08:45:42;;;;;;;2.20;1.53;;;14.80;95.50;;;;;;5066956;28;20704;-52
2021/05/16 08:48:10;;;;;;;4.70;2.10;;;14.70;95.70;;;;;;5072336;28;20656;-52
2021/05/16 08:50:37;;;;;;;5.07;2.40;;;14.70;95.90;;;;;;5073155;28;20649;-53
2021/05/16 08:53:04;;;;;;;4.80;2.97;;;14.60;96.40;;;;;;5067263;28;20666;-53
2021/05/16 08:55:32;;;;;;;4.83;3.50;;;14.60;96.50;;;;;;5066238;28;20649;-52
2021/05/16 08:57:58;;;;;;;4.63;3.07;;;14.60;96.40;;;;;;5072877;28;20656;-53
2021/05/16 09:00:26;;;;;;;6.47;3.37;;;14.60;96.50;;;;;;5072338;28;20663;-54
2021/05/16 09:03:04;;;;;;;4.30;3.00;;;14.60;96.90;;;;;;5072887;28;20609;-54
2021/05/16 09:05:35;;;;;;;5.90;2.87;;;14.70;97.20;;;;;;5072377;28;20697;-55
2021/05/16 09:08:02;;;;;;;3.77;1.70;;;14.80;96.80;;;;;;5061814;28;20697;-55
2021/05/16 09:10:29;;;;;;;4.50;2.50;;;15.00;96.50;;;;;;5067273;28;20668;-54
2021/05/16 09:13:14;;;;;;;2.60;1.77;;;15.20;96.30;;;;;;5072820;28;20739;-55
2021/05/16 09:15:40;;;;;;;6.07;2.30;;;15.70;95.30;;;;;;5063783;28;20745;-53
2021/05/16 09:18:07;;;;;;;4.50;1.93;;;15.80;94.00;;;;;;5061100;28;20660;-54
2021/05/16 09:20:35;;;;;;;4.70;1.67;;;15.80;93.60;;;;;;5072854;28;20632;-54
2021/05/16 09:23:02;;;;;;;2.20;1.07;;;15.90;93.30;;;;;;5062501;28;20633;-54
2021/05/16 09:25:30;;;;;;;3.50;2.10;;;15.80;91.10;;;;;;5069475;28;20770;-54
2021/05/16 09:28:09;;;;;;;5.23;1.70;;;15.70;91.60;;;;;;5054917;28;20672;-54
2021/05/16 09:30:37;;;;;;;3.20;2.23;;;15.90;92.00;;;;;;5070907;28;21226;-54
2021/05/16 09:33:05;;;;;;;2.30;1.23;;;16.10;90.30;;;;;;5051069;28;20680;-54
2021/05/16 09:35:37;;;;;;;6.23;2.30;;;16.20;86.40;;;;;;5065625;28;20700;-55
2021/05/16 09:38:06;;;;;;;3.43;1.90;;;16.30;85.80;;;;;;5071641;28;20668;-54
2021/05/16 09:40:37;;;;;;;3.90;2.13;;;16.40;84.90;;;;;;5071275;28;20649;-54
2021/05/16 09:43:15;;;;;;;2.97;1.63;;;16.60;87.00;;;;;;5070209;28;20618;-54
2021/05/16 09:45:49;;;;;;;4.93;2.03;;;16.90;83.10;;;;;;5071691;28;21345;-53
2021/05/16 09:48:30;;;;;;;5.37;2.20;;;17.00;80.70;;;;;;5072064;28;20659;-54
2021/05/16 09:51:18;;;;;;;3.83;2.40;;;16.90;79.60;;;;;;5071841;28;20656;-54
2021/05/16 09:54:03;;;;;;;6.00;2.20;;;16.90;78.80;;;;;;5070628;28;20651;-55
2021/05/16 09:56:31;;;;;;;2.23;1.63;;;17.00;79.80;;;;;;5071279;28;20683;-54
2021/05/16 09:59:00;;;;;;;4.83;2.50;;;17.10;78.00;;;;;;5071555;28;20678;-54
2021/05/16 10:01:27;;;;;;;1.50;1.23;;;17.20;77.70;;;;;;5071672;28;21105;-54
2021/05/16 10:03:57;;;;;;;5.57;2.00;;;17.20;76.60;;;;;;5071234;28;20668;-54
2021/05/16 10:06:26;;;;;;;3.00;2.13;;;17.30;77.10;;;;;;5070528;28;20658;-54
2021/05/16 10:08:53;;;;;;;3.60;1.70;;;17.50;73.80;;;;;;5070866;28;20629;-53
2021/05/16 10:11:20;;;;;;;7.67;2.60;;;17.60;70.30;;;;;;5069762;28;20654;-53
2021/05/16 10:13:51;;;;;;;4.23;1.80;;;17.50;69.10;;;;;;5072326;28;20652;-54
2021/05/16 10:16:18;;;;;;;6.30;2.00;;;17.20;71.60;;;;;;5071753;28;20722;-54
2021/05/16 10:18:46;;;;;;;3.27;1.90;;;17.00;72.80;;;;;;5071540;28;20652;-54
2021/05/16 10:21:13;;;;;;;3.93;1.97;;;16.90;72.20;;;;;;5070706;28;20722;-54
2021/05/16 10:23:41;;;;;;;6.77;2.00;;;16.90;72.20;;;;;;5063164;28;20653;-54
2021/05/16 10:26:18;;;;;;;2.30;1.20;;;16.80;72.20;;;;;;5069386;28;20727;-54
2021/05/16 10:28:59;;;;;;;7.07;2.20;;;16.80;73.90;;;;;;5069121;28;20690;-54
2021/05/16 10:31:48;;;;;;;6.83;1.30;;;16.60;75.50;;;;;;5070878;28;20649;-55
2021/05/16 10:34:39;;;;;;;2.87;1.37;;;16.40;74.70;;;;;;5070899;28;20625;-53
2021/05/16 10:37:06;;;;;;;5.63;1.30;;;16.30;74.20;;;;;;5061293;28;20706;-54
2021/05/16 10:39:53;;;;;;;3.20;1.40;;;16.30;73.20;;;;;;5070189;28;20621;-54
2021/05/16 10:42:21;;;;;;;2.80;2.03;;;16.40;74.00;;;;;;5062484;28;20624;-54
2021/05/16 10:45:13;;;;;;;2.53;1.13;;;16.50;73.00;;;;;;5067384;28;20649;-54
2021/05/16 10:48:11;;;;;;;5.60;2.13;;;16.70;72.20;;;;;;5048581;28;20705;-53
2021/05/16 10:50:57;;;;;;;1.63;1.53;;;17.00;72.70;;;;;;5050862;28;20625;-53
2021/05/16 10:53:36;;;;;;;2.53;1.27;;;17.60;69.00;;;;;;5066206;28;20978;-53
2021/05/16 10:56:14;;;;;;;2.27;1.27;;;18.00;66.90;;;;;;5070539;28;20782;-53
2021/05/16 10:58:49;;;;;;;1.47;1.37;;;17.90;64.30;;;;;;5071007;28;20651;-53
2021/05/16 11:01:16;;;;;;;4.00;1.27;;;18.20;62.20;;;;;;5070508;28;20655;-54
2021/05/16 11:03:52;;;;;;;9.20;2.10;;;18.30;60.40;;;;;;5070588;28;20660;-55
2021/05/16 11:06:21;;;;;;;5.80;2.13;;;18.10;61.70;;;;;;5059309;28;20688;-56
2021/05/16 11:09:13;;;;;;;3.17;1.90;;;17.80;62.10;;;;;;5062036;28;20618;-53
2021/05/16 11:11:42;;;;;;;4.03;1.30;;;17.70;64.00;;;;;;5063718;28;20654;-54
2021/05/16 11:14:16;;;;;;;1.77;1.53;;;17.70;63.70;;;;;;5070789;28;20625;-55
2021/05/16 11:16:54;;;;;;;5.30;2.33;;;17.80;65.20;;;;;;5070282;28;20653;-55
2021/05/16 11:19:22;;;;;;;2.10;1.30;;;18.10;63.80;;;;;;5070441;28;20617;-53
2021/05/16 11:21:49;;;;;;;3.30;2.00;;;18.20;62.00;;;;;;5070200;28;20652;-53
2021/05/16 11:24:16;;;;;;;8.63;2.70;;;18.20;59.20;;;;;;5069340;28;20645;-54
2021/05/16 11:26:44;;;;;;;9.13;2.43;;;18.50;59.10;;;;;;5067070;28;21294;-54
2021/05/16 11:29:15;;;;;;;5.47;2.40;;;18.90;59.90;;;;;;5069359;28;20633;-54
2021/05/16 11:31:42;;;;;;;4.30;1.47;;;19.40;60.10;;;;;;5070504;28;20657;-53
2021/05/16 11:34:09;;;;;;;2.40;1.67;;;19.80;58.40;;;;;;5070035;28;20695;-53
2021/05/16 11:36:36;;;;;;;2.60;1.40;;;20.00;58.20;;;;;;5060750;28;20691;-54
2021/05/16 11:39:04;;;;;;;9.17;2.30;;;20.00;55.80;;;;;;5069826;28;21001;-54
2021/05/16 11:41:35;;;;;;;4.37;1.80;;;19.80;55.50;;;;;;5073983;28;20676;-53
2021/05/16 11:44:03;;;;;;;4.73;2.63;;;19.50;57.10;;;;;;5065270;28;20978;-53
2021/05/16 11:46:32;;;;;;;7.70;2.13;;;19.50;58.00;;;;;;5053967;28;20684;-53
2021/05/16 11:48:58;;;;;;;3.90;2.50;;;19.70;58.10;;;;;;5059837;28;20664;-53
2021/05/16 11:51:25;;;;;;;4.03;1.67;;;19.90;56.30;;;;;;5074169;28;20625;-53
2021/05/16 11:53:54;;;;;;;3.27;1.60;;;19.80;56.20;;;;;;5073823;28;20657;-54
2021/05/16 11:56:22;;;;;;;4.43;2.17;;;19.40;55.70;;;;;;5073567;28;20657;-54
2021/05/16 11:58:50;;;;;;;5.87;2.10;;;19.40;55.50;;;;;;5073655;28;20657;-54
2021/05/16 12:01:18;;;;;;;3.67;1.53;;;19.60;53.60;;;;;;5068675;28;21362;-54
2021/05/16 12:03:55;;;;;;;2.40;1.70;;;19.70;54.00;;;;;;5067831;28;21032;-54
2021/05/16 12:06:22;;;;;;;2.50;1.73;;;19.50;54.60;;;;;;5070091;28;20760;-54
2021/05/16 12:09:05;;;;;;;3.03;1.87;;;19.30;55.00;;;;;;5070224;28;20656;-54
2021/05/16 12:11:32;;;;;;;2.00;1.50;;;19.30;55.80;;;;;;5071940;28;20625;-55
2021/05/16 12:14:10;;;;;;;3.80;1.90;;;19.60;55.40;;;;;;5070772;28;20653;-55
2021/05/16 12:16:38;;;;;;;4.93;1.40;;;19.90;53.80;;;;;;5072861;28;21231;-55
2021/05/16 12:19:05;;;;;;;3.27;1.77;;;20.10;52.00;;;;;;5072159;28;20617;-54
2021/05/16 12:21:34;;;;;;;4.93;1.70;;;19.80;51.80;;;;;;5084220;28;21181;-52
2021/05/16 12:24:02;;;;;;;2.20;1.20;;;19.90;52.30;;;;;;5073395;28;20649;-52
2021/05/16 12:26:31;;;;;;;7.10;1.70;;;20.20;50.70;;;;;;5072384;28;20653;-54
2021/05/16 12:28:58;;;;;;;3.00;1.60;;;20.20;50.00;;;;;;5061032;28;21270;-52
2021/05/16 12:31:25;;;;;;;3.37;1.80;;;19.90;50.60;;;;;;5072867;28;20629;-53
2021/05/16 12:33:54;;;;;;;8.13;1.93;;;19.50;50.40;;;;;;5071390;28;20657;-52
2021/05/16 12:36:20;;;;;;;5.57;1.70;;;19.70;50.40;;;;;;5052436;28;21109;-53
2021/05/16 12:38:48;;;;;;;3.30;1.67;;;19.80;49.60;;;;;;5052706;28;21004;-53
2021/05/16 12:41:17;;;;;;;2.30;1.30;;;19.70;50.50;;;;;;5056447;28;20661;-54
2021/05/16 12:43:44;;;;;;;4.83;1.97;;;19.50;51.40;;;;;;5072086;28;20652;-54
2021/05/16 12:46:11;;;;;;;4.73;1.50;;;19.50;51.60;;;;;;5072586;28;20699;-53
2021/05/16 12:48:40;;;;;;;4.10;2.17;;;19.70;52.00;;;;;;5072031;28;21033;-53
2021/05/16 12:51:07;;;;;;;4.40;2.27;;;20.00;51.00;;;;;;5070424;28;20710;-55